Terminal Aerodrome Forecast
Issued by NWS

Home | Current Version | Previous Version | Graphics & Text | Print | Product List | Glossary On
Versions: 1 2 3 4 5 6 7 8 9 10 11 12 13 14 15 16 17 18 19
000
FTUS41 KCLE 241700 CCA
TAFFDY
TAF COR
KFDY 241759Z 2418/2518 23030G40KT P6SM BKN015 BKN020
      TEMPO 2418/2420 24020G45KT
     FM242300 24022G30KT P6SM OVC025
     FM250600 24015G25KT P6SM OVC030=

USA.gov is the U.S. government's official web portal to all federal, state and local government web resources and services.